Time;durP1;ratioP1;P1;durP2;ratioP2;P2;SDS_P1;SDS_P2;PMS_P1;PMS_P2;Temp;Humidity;BMP_temperature;BMP_pressure;BME280_temperature;BME280_humidity;BME280_pressure;Samples;Min_cycle;Max_cycle;Signal;HPM_P1;HPM_P2
2022/11/13 00:02:01;;;;;;;1985.28;647.88;;;10.20;99.90;;;;;;5090508;28;20452;-76
2022/11/13 00:04:26;;;;;;;1988.97;481.52;;;10.30;99.90;;;;;;5087837;28;20035;-83
2022/11/13 00:06:52;;;;;;;1999.90;296.58;;;10.30;99.90;;;;;;5100400;28;20052;-76
2022/11/13 00:09:18;;;;;;;558.47;93.95;;;10.70;99.90;;;;;;5095839;28;20051;-77
2022/11/13 00:11:43;;;;;;;1347.68;238.50;;;10.30;99.90;;;;;;5091847;28;20044;-76
2022/11/13 00:14:09;;;;;;;1105.88;517.40;;;10.30;99.90;;;;;;5090616;28;20384;-79
2022/11/13 00:16:34;;;;;;;1876.82;624.97;;;10.40;99.90;;;;;;5092120;28;20603;-77
2022/11/13 00:19:00;;;;;;;616.17;86.97;;;10.40;99.90;;;;;;5079651;28;20492;-85
2022/11/13 00:21:26;;;;;;;1598.78;765.72;;;10.90;99.90;;;;;;5094355;28;20123;-87
2022/11/13 00:23:52;;;;;;;1562.00;760.47;;;10.50;99.90;;;;;;5086048;28;20474;-76
2022/11/13 00:26:24;;;;;;;1388.30;390.17;;;10.50;99.90;;;;;;5092749;28;20039;-76
2022/11/13 00:28:54;;;;;;;1825.00;607.95;;;10.50;99.90;;;;;;5091985;28;20091;-82
2022/11/13 00:31:20;;;;;;;1574.90;762.08;;;10.50;99.90;;;;;;5094545;28;20126;-76
2022/11/13 00:33:46;;;;;;;1999.90;999.90;;;10.60;99.90;;;;;;5094521;28;20113;-76
2022/11/13 00:36:21;;;;;;;1726.57;607.08;;;11.40;99.90;;;;;;5103887;28;20053;-77
2022/11/13 00:38:47;;;;;;;1999.90;999.90;;;11.10;99.90;;;;;;5097379;28;20040;-76
2022/11/13 00:41:13;;;;;;;1804.20;792.97;;;10.70;99.90;;;;;;5097970;28;20051;-76
2022/11/13 00:43:39;;;;;;;1999.90;999.90;;;10.80;99.90;;;;;;5091305;28;20040;-76
2022/11/13 00:46:06;;;;;;;1786.07;789.60;;;10.80;99.90;;;;;;5096062;28;20684;-77
2022/11/13 00:48:32;;;;;;;1999.90;999.90;;;10.90;96.00;;;;;;5090730;28;20124;-76
2022/11/13 00:50:58;;;;;;;1999.90;999.90;;;10.90;93.20;;;;;;5091352;28;20166;-76
2022/11/13 00:53:24;;;;;;;1129.68;519.78;;;12.20;77.50;;;;;;5094017;28;20115;-76
2022/11/13 00:55:50;;;;;;;1999.90;999.90;;;10.90;86.90;;;;;;5093748;28;20043;-76
2022/11/13 00:58:16;;;;;;;1999.90;999.90;;;10.90;94.60;;;;;;5095469;28;20044;-76
2022/11/13 01:00:44;;;;;;;1999.90;999.90;;;10.70;55.30;;;;;;5087444;28;20055;-77
2022/11/13 01:03:10;;;;;;;1999.90;999.90;;;10.90;6.70;;;;;;5094376;28;20060;-76
2022/11/13 01:05:41;;;;;;;1257.93;541.95;;;10.90;77.40;;;;;;5108428;28;20044;-76
2022/11/13 01:08:08;;;;;;;1108.95;181.27;;;10.90;93.40;;;;;;5087690;28;20403;-76
2022/11/13 01:10:38;;;;;;;1360.88;372.70;;;9.80;66.00;;;;;;5094528;28;20545;-84
2022/11/13 01:13:04;;;;;;;1999.90;999.90;;;10.90;19.10;;;;;;5088183;28;20399;-76
2022/11/13 01:15:30;;;;;;;1128.43;521.22;;;11.00;70.00;;;;;;5095085;28;20047;-76
2022/11/13 01:17:56;;;;;;;1580.78;581.55;;;11.00;55.30;;;;;;5092684;28;20035;-76
2022/11/13 01:20:23;;;;;;;1999.90;999.90;;;11.00;1.00;;;;;;5103378;28;20055;-78
2022/11/13 01:22:49;;;;;;;1999.90;999.90;;;11.00;48.80;;;;;;5092325;28;20048;-76
2022/11/13 01:25:16;;;;;;;1999.90;999.90;;;11.10;63.20;;;;;;5086788;28;20053;-77
2022/11/13 01:27:41;;;;;;;1517.40;577.17;;;11.10;59.10;;;;;;5091076;28;20085;-76
2022/11/13 01:30:08;;;;;;;1223.28;194.45;;;11.60;35.60;;;;;;5093061;28;20048;-77
2022/11/13 01:32:33;;;;;;;1999.90;999.90;;;11.10;25.50;;;;;;5086951;28;20051;-76
2022/11/13 01:34:59;;;;;;;1587.55;763.50;;;11.20;50.60;;;;;;5089106;28;20032;-80
2022/11/13 01:37:25;;;;;;;1650.35;597.85;;;11.10;1.00;;;;;;5098318;28;20093;-76
2022/11/13 01:39:50;;;;;;;1999.90;999.90;;;11.40;19.90;;;;;;5102353;28;20036;-77
2022/11/13 01:42:16;;;;;;;1263.28;192.20;;;11.20;1.00;;;;;;5083190;28;20641;-76
2022/11/13 01:44:54;;;;;;;1999.90;999.90;;;11.20;1.00;;;;;;5088771;28;20040;-76
2022/11/13 01:47:21;;;;;;;1999.90;999.90;;;11.30;55.00;;;;;;5092423;28;20158;-77
2022/11/13 01:49:50;;;;;;;1999.90;999.90;;;11.30;52.80;;;;;;5094360;28;20132;-76
2022/11/13 01:52:20;;;;;;;1570.60;589.47;;;11.30;48.30;;;;;;5098092;28;20063;-76
2022/11/13 01:54:50;;;;;;;1439.82;566.63;;;11.30;27.90;;;;;;5087863;28;20047;-76
2022/11/13 01:57:16;;;;;;;1999.90;999.90;;;11.30;19.00;;;;;;5096948;28;20757;-76
2022/11/13 01:59:48;;;;;;;1999.90;999.90;;;11.30;22.60;;;;;;5091169;28;20039;-76
2022/11/13 02:02:13;;;;;;;1193.72;181.82;;;11.30;1.90;;;;;;5097099;28;20423;-81
2022/11/13 02:04:39;;;;;;;1999.90;999.90;;;11.30;1.00;;;;;;5089493;28;20048;-85
2022/11/13 02:07:08;;;;;;;293.92;47.53;;;11.20;1.00;;;;;;5102718;28;20048;-76
2022/11/13 02:09:42;;;;;;;1329.30;552.63;;;11.90;19.90;;;;;;5092209;28;20045;-77
2022/11/13 02:12:13;;;;;;;1999.90;999.90;;;11.40;14.20;;;;;;5093570;28;20067;-76
2022/11/13 02:14:41;;;;;;;1648.78;598.80;;;11.20;30.00;;;;;;5089458;28;20443;-77
2022/11/13 02:17:11;;;;;;;307.85;47.70;;;11.20;1.00;;;;;;5090168;28;20062;-77
2022/11/13 02:19:42;;;;;;;1627.43;599.28;;;11.20;13.00;;;;;;5084819;28;20734;-76
2022/11/13 02:22:29;;;;;;;1999.90;999.90;;;11.10;1.00;;;;;;5075690;28;20036;-76
2022/11/13 02:24:57;;;;;;;1588.97;595.90;;;11.10;1.00;;;;;;5087056;28;20115;-77
2022/11/13 02:27:40;;;;;;;977.20;140.82;;;11.10;1.00;;;;;;5102222;28;20490;-77
2022/11/13 02:30:23;;;;;;;1392.95;398.88;;;11.20;1.00;;;;;;5086773;28;20047;-87
2022/11/13 02:32:51;;;;;;;1440.85;403.25;;;11.10;1.00;;;;;;5088811;28;20385;-79
2022/11/13 02:35:27;;;;;;;1284.90;203.20;;;11.30;1.00;;;;;;5089716;28;20039;-76
2022/11/13 02:37:55;;;;;;;1292.55;541.80;;;11.00;1.00;;;;;;5096891;28;20051;-77
2022/11/13 02:40:22;;;;;;;1999.90;999.90;;;12.20;24.90;;;;;;5090243;28;20055;-76
2022/11/13 02:42:48;;;;;;;1999.90;999.90;;;11.00;47.70;;;;;;5091137;28;20040;-76
2022/11/13 02:45:14;;;;;;;1568.93;591.53;;;11.10;10.40;;;;;;5087825;28;20043;-76
2022/11/13 02:47:39;;;;;;;1257.78;191.10;;;11.00;1.00;;;;;;5085329;28;20048;-76
2022/11/13 02:50:06;;;;;;;1999.90;999.90;;;11.00;19.00;;;;;;5089275;28;20052;-77
2022/11/13 02:52:32;;;;;;;1161.28;178.55;;;11.00;37.90;;;;;;5092977;28;20141;-76
2022/11/13 02:54:57;;;;;;;1999.90;999.90;;;11.00;95.60;;;;;;5089163;28;20032;-77
2022/11/13 02:57:23;;;;;;;1819.88;798.58;;;11.10;99.90;;;;;;5100930;28;20047;-76
2022/11/13 02:59:49;;;;;;;1999.90;999.90;;;11.60;96.70;;;;;;5090265;28;20499;-76
2022/11/13 03:02:14;;;;;;;1637.55;598.25;;;11.10;99.90;;;;;;5081546;28;20142;-85
2022/11/13 03:04:40;;;;;;;1564.28;760.80;;;11.40;99.90;;;;;;5098525;28;20048;-76
2022/11/13 03:07:06;;;;;;;1999.90;999.90;;;11.20;99.90;;;;;;5091412;28;20048;-77
2022/11/13 03:09:31;;;;;;;1399.05;204.65;;;11.50;99.90;;;;;;5094431;28;20078;-81
2022/11/13 03:11:57;;;;;;;1103.85;514.30;;;11.10;99.90;;;;;;5087137;28;20097;-84
2022/11/13 03:14:23;;;;;;;1552.57;758.22;;;11.10;99.90;;;;;;5084120;28;20089;-76
2022/11/13 03:16:48;;;;;;;1999.90;999.90;;;12.00;99.90;;;;;;5086230;28;20139;-78
2022/11/13 03:19:14;;;;;;;1999.90;999.90;;;11.10;99.90;;;;;;5097955;28;20056;-76
2022/11/13 03:21:39;;;;;;;1018.08;165.25;;;11.00;8.90;;;;;;5100996;28;20045;-76
2022/11/13 03:24:05;;;;;;;220.02;39.03;;;10.70;99.90;;;;;;5069805;28;20047;-77
2022/11/13 03:26:31;;;;;;;1494.13;404.65;;;11.00;99.90;;;;;;5093485;28;20047;-76
2022/11/13 03:28:57;;;;;;;1276.15;542.78;;;11.40;99.90;;;;;;5099929;28;20043;-84
2022/11/13 03:31:22;;;;;;;1999.90;999.90;;;11.00;99.90;;;;;;5084138;28;20063;-77
2022/11/13 03:33:52;;;;;;;1999.90;999.90;;;11.00;99.90;;;;;;5084424;28;20758;-78
2022/11/13 03:36:17;;;;;;;1332.75;215.70;;;11.20;99.90;;;;;;5088404;28;20150;-76
2022/11/13 03:38:43;;;;;;;1244.47;538.13;;;10.90;99.90;;;;;;5089547;28;20122;-76
2022/11/13 03:41:09;;;;;;;1862.72;807.08;;;10.90;99.90;;;;;;5098101;28;20110;-76
2022/11/13 03:43:35;;;;;;;1638.00;766.80;;;10.90;99.90;;;;;;5115064;27;20059;-83
2022/11/13 03:46:01;;;;;;;1205.15;532.25;;;11.10;99.90;;;;;;5102575;28;20055;-76
2022/11/13 03:48:26;;;;;;;1825.93;799.67;;;11.00;99.90;;;;;;5098593;28;20094;-76
2022/11/13 03:50:54;;;;;;;1999.90;999.90;;;10.90;99.90;;;;;;5087835;28;20068;-76
2022/11/13 03:53:19;;;;;;;1045.22;125.55;;;11.00;99.90;;;;;;5094484;28;20079;-76
2022/11/13 03:55:46;;;;;;;1999.90;999.90;;;10.80;99.90;;;;;;5091888;28;20114;-76
2022/11/13 03:58:12;;;;;;;1151.22;162.65;;;10.90;99.90;;;;;;5106198;28;20048;-76
2022/11/13 04:00:39;;;;;;;1261.60;213.00;;;10.80;99.90;;;;;;5094900;28;20039;-80
2022/11/13 04:03:04;;;;;;;1607.75;601.92;;;10.80;99.90;;;;;;5087388;28;20565;-76
2022/11/13 04:05:30;;;;;;;1131.13;183.73;;;11.40;99.90;;;;;;5091435;28;20040;-77
2022/11/13 04:07:56;;;;;;;1708.82;610.55;;;12.00;99.90;;;;;;5093942;28;20071;-76
2022/11/13 04:10:21;;;;;;;1455.68;394.38;;;10.60;99.90;;;;;;5104797;28;20043;-86
2022/11/13 04:12:47;;;;;;;1245.63;373.05;;;10.70;99.90;;;;;;5091138;28;20044;-77
2022/11/13 04:15:13;;;;;;;1567.03;760.80;;;10.70;99.90;;;;;;5097164;28;20048;-77
2022/11/13 04:17:39;;;;;;;1820.07;802.88;;;10.70;99.90;;;;;;5089991;28;20055;-76
2022/11/13 04:20:05;;;;;;;1999.90;999.90;;;10.80;99.90;;;;;;5094084;28;20047;-76
2022/11/13 04:22:31;;;;;;;1068.00;516.05;;;10.60;99.90;;;;;;5091235;28;20121;-78
2022/11/13 04:24:56;;;;;;;1999.90;999.90;;;11.30;99.90;;;;;;5086787;28;20079;-85
2022/11/13 04:27:22;;;;;;;1999.90;999.90;;;10.60;99.90;;;;;;5087680;28;20048;-81
2022/11/13 04:29:47;;;;;;;1999.90;999.90;;;10.80;99.90;;;;;;5088165;28;20040;-76
2022/11/13 04:32:13;;;;;;;1008.55;164.77;;;11.60;99.90;;;;;;5089379;28;20051;-77
2022/11/13 04:34:39;;;;;;;1322.85;384.13;;;10.60;99.90;;;;;;5095768;28;20036;-80
2022/11/13 04:37:04;;;;;;;1772.38;791.50;;;11.20;99.90;;;;;;5091774;28;20044;-76
2022/11/13 04:39:30;;;;;;;1999.90;999.90;;;11.60;99.90;;;;;;5096810;28;20044;-76
2022/11/13 04:44:40;;;;;;;1999.90;999.90;;;10.70;99.90;;;;;;5091079;28;20048;-76
2022/11/13 04:47:06;;;;;;;1789.50;796.08;;;12.00;1.00;;;;;;5086481;28;20052;-76
2022/11/13 04:49:31;;;;;;;1184.38;179.43;;;10.70;99.90;;;;;;5093800;28;20122;-76
2022/11/13 04:51:57;;;;;;;1183.72;528.47;;;10.70;1.00;;;;;;5091310;28;20476;-83
2022/11/13 04:54:23;;;;;;;1999.90;999.90;;;10.70;99.90;;;;;;5091365;28;20366;-80
2022/11/13 04:56:51;;;;;;;1265.65;542.28;;;10.50;1.00;;;;;;5099617;28;20137;-75
2022/11/13 04:59:17;;;;;;;1247.32;209.25;;;10.90;99.90;;;;;;5085488;28;20040;-82
2022/11/13 05:01:43;;;;;;;1548.88;757.97;;;11.10;1.00;;;;;;5098734;28;20090;-79
2022/11/13 05:04:12;;;;;;;1544.80;586.63;;;10.90;1.00;;;;;;5091375;28;20036;-75
2022/11/13 05:06:38;;;;;;;1328.45;543.85;;;11.10;1.00;;;;;;5089131;28;20028;-76
2022/11/13 05:09:04;;;;;;;1489.78;398.70;;;11.40;1.00;;;;;;5092453;28;20101;-76
2022/11/13 05:11:30;;;;;;;1593.30;763.17;;;10.70;1.00;;;;;;5089159;28;20036;-85
2022/11/13 05:13:55;;;;;;;1781.85;794.25;;;10.60;99.90;;;;;;5094666;28;20043;-78
2022/11/13 05:16:21;;;;;;;1225.80;532.28;;;11.00;1.00;;;;;;5090291;28;20047;-76
2022/11/13 05:18:47;;;;;;;1999.90;999.90;;;10.70;12.30;;;;;;5089767;28;20535;-83
2022/11/13 05:21:12;;;;;;;1399.07;570.17;;;12.10;23.00;;;;;;5087142;28;20094;-76
2022/11/13 05:23:38;;;;;;;1648.30;770.22;;;11.00;1.00;;;;;;5100770;28;20122;-76
2022/11/13 05:26:12;;;;;;;1331.38;218.32;;;10.70;1.00;;;;;;5092472;28;20528;-76
2022/11/13 05:28:38;;;;;;;440.55;63.30;;;10.60;55.30;;;;;;5091805;28;20123;-77
2022/11/13 05:31:07;;;;;;;1999.90;999.90;;;11.30;99.90;;;;;;5085662;28;20080;-76
2022/11/13 05:33:33;;;;;;;1324.03;204.20;;;12.10;45.00;;;;;;5089788;28;20086;-76
2022/11/13 05:36:10;;;;;;;1999.90;999.90;;;10.60;46.90;;;;;;5085697;28;20051;-76
2022/11/13 05:38:36;;;;;;;1615.30;765.92;;;8.30;94.90;;;;;;5086678;28;20076;-83
2022/11/13 05:41:14;;;;;;;1999.90;999.90;;;10.60;1.00;;;;;;5094238;28;20071;-76
2022/11/13 05:43:41;;;;;;;1999.90;999.90;;;10.60;99.90;;;;;;5084732;28;20040;-77
2022/11/13 05:46:14;;;;;;;1466.80;567.40;;;10.90;99.90;;;;;;5090058;28;20075;-77
2022/11/13 05:48:40;;;;;;;1750.05;787.50;;;10.60;99.90;;;;;;5081945;28;20048;-76
2022/11/13 05:51:12;;;;;;;1198.78;184.82;;;10.50;99.90;;;;;;5097660;28;20108;-79
2022/11/13 05:53:38;;;;;;;1999.90;999.90;;;10.50;1.00;;;;;;5096848;28;20085;-76
2022/11/13 05:56:07;;;;;;;1168.95;183.52;;;10.50;99.90;;;;;;5100411;28;20049;-84
2022/11/13 05:58:33;;;;;;;1575.63;242.57;;;10.50;99.90;;;;;;5100349;28;20044;-77
2022/11/13 06:01:08;;;;;;;1308.28;213.50;;;10.50;99.90;;;;;;5084194;28;20048;-77
2022/11/13 06:03:34;;;;;;;1243.00;186.93;;;10.50;99.90;;;;;;5088032;28;20142;-87
2022/11/13 06:06:00;;;;;;;1342.00;216.27;;;10.40;99.90;;;;;;5088758;28;20531;-76
2022/11/13 06:08:26;;;;;;;1060.38;515.47;;;;;;;;;;5090647;28;20046;-82
2022/11/13 06:10:52;;;;;;;1179.60;526.50;;;10.30;99.90;;;;;;5078395;28;20123;-76
2022/11/13 06:13:17;;;;;;;1295.75;199.23;;;10.30;99.90;;;;;;5097640;28;20127;-77
2022/11/13 06:15:43;;;;;;;1999.90;999.90;;;10.30;32.20;;;;;;5093440;28;20044;-76
2022/11/13 06:18:08;;;;;;;1710.88;779.50;;;10.30;99.90;;;;;;5088617;28;20040;-76
2022/11/13 06:20:35;;;;;;;1581.30;762.42;;;11.20;99.90;;;;;;5090314;28;20043;-80
2022/11/13 06:23:01;;;;;;;1375.22;212.45;;;10.30;99.90;;;;;;5096332;28;20046;-76
2022/11/13 06:25:27;;;;;;;707.55;111.45;;;10.90;99.90;;;;;;5092696;28;20047;-76
2022/11/13 06:27:53;;;;;;;1851.07;455.75;;;10.30;99.90;;;;;;5090713;28;20043;-76
2022/11/13 06:30:18;;;;;;;1551.25;419.20;;;11.80;99.90;;;;;;5088020;28;20374;-77
2022/11/13 06:32:50;;;;;;;1903.72;287.35;;;10.30;99.90;;;;;;5070800;28;20167;-76
2022/11/13 06:35:15;;;;;;;1999.90;999.90;;;10.70;99.90;;;;;;5089588;28;20570;-77
2022/11/13 06:37:41;;;;;;;1484.57;396.27;;;10.10;1.00;;;;;;5094827;28;20123;-77
2022/11/13 06:40:07;;;;;;;1999.90;999.90;;;10.50;1.00;;;;;;5089201;28;20099;-77
2022/11/13 06:42:33;;;;;;;1676.30;605.17;;;10.10;1.00;;;;;;5088171;28;20048;-76
2022/11/13 06:44:59;;;;;;;1999.90;999.90;;;10.10;1.00;;;;;;5098726;28;20043;-75
2022/11/13 06:47:24;;;;;;;1711.53;606.47;;;10.00;1.00;;;;;;5100923;28;20059;-76
2022/11/13 06:49:50;;;;;;;1670.45;604.03;;;10.00;1.00;;;;;;5079875;28;20040;-78
2022/11/13 06:52:15;;;;;;;1329.10;542.88;;;11.90;4.20;;;;;;5095832;28;20050;-86
2022/11/13 06:54:41;;;;;;;1510.88;584.08;;;9.80;56.10;;;;;;5101143;28;20137;-85
2022/11/13 06:57:07;;;;;;;1589.53;762.58;;;11.50;99.90;;;;;;5084931;28;20128;-77
2022/11/13 06:59:32;;;;;;;1999.90;999.90;;;9.90;99.90;;;;;;5105383;28;20051;-77
2022/11/13 07:01:58;;;;;;;1697.78;607.40;;;9.80;99.90;;;;;;5089194;28;20047;-77
2022/11/13 07:04:23;;;;;;;1600.70;428.92;;;11.50;1.00;;;;;;5092301;28;20113;-77
2022/11/13 07:06:49;;;;;;;1999.90;517.63;;;10.60;99.90;;;;;;5081207;28;20056;-79
2022/11/13 07:09:15;;;;;;;1999.90;528.20;;;9.90;99.90;;;;;;5084792;28;20117;-78
2022/11/13 07:11:40;;;;;;;1999.90;999.90;;;9.80;99.90;;;;;;5091658;28;20044;-87
2022/11/13 07:14:10;;;;;;;1999.90;581.33;;;10.20;17.00;;;;;;5088077;28;20044;-84
2022/11/13 07:16:36;;;;;;;1839.70;445.20;;;11.20;99.90;;;;;;5082247;28;20109;-81
2022/11/13 07:19:02;;;;;;;1998.53;356.75;;;11.20;99.90;;;;;;5100123;28;20127;-78
2022/11/13 07:21:27;;;;;;;487.73;71.72;;;10.30;99.90;;;;;;5105154;28;20043;-77
2022/11/13 07:23:53;;;;;;;1808.65;626.47;;;10.50;99.90;;;;;;5090515;28;20036;-77
2022/11/13 07:26:19;;;;;;;1999.90;999.90;;;9.80;99.90;;;;;;5106698;28;20387;-76
2022/11/13 07:28:45;;;;;;;839.63;308.00;;;9.80;99.90;;;;;;5094055;28;20062;-81
2022/11/13 07:31:12;;;;;;;1999.90;305.55;;;10.10;99.90;;;;;;5106875;28;20506;-77
2022/11/13 07:33:38;;;;;;;1990.30;492.27;;;9.90;99.90;;;;;;5095619;28;20040;-77
2022/11/13 07:36:04;;;;;;;1999.90;999.90;;;9.80;99.90;;;;;;5110225;28;20099;-77
2022/11/13 07:38:30;;;;;;;1999.90;671.83;;;11.30;99.90;;;;;;5076736;28;20045;-77
2022/11/13 07:40:58;;;;;;;1999.90;999.90;;;9.80;99.90;;;;;;5093956;28;20121;-80
2022/11/13 07:43:23;;;;;;;1999.90;999.90;;;11.20;1.00;;;;;;5100582;28;20056;-77
2022/11/13 07:45:53;;;;;;;1999.90;999.90;;;10.00;1.00;;;;;;5072900;28;20055;-77
2022/11/13 07:48:20;;;;;;;1999.90;999.90;;;10.00;1.00;;;;;;5083718;28;20302;-77
2022/11/13 07:50:46;;;;;;;1442.82;201.23;;;10.10;1.00;;;;;;5069496;28;20044;-78
2022/11/13 07:53:12;;;;;;;1999.90;999.90;;;10.30;1.00;;;;;;5082633;28;20734;-77
2022/11/13 07:55:38;;;;;;;564.15;93.35;;;12.00;1.00;;;;;;5084975;28;20045;-79
2022/11/13 07:58:04;;;;;;;1990.97;495.05;;;10.20;1.00;;;;;;5089651;28;20055;-82
2022/11/13 08:00:32;;;;;;;1588.85;764.13;;;10.50;8.10;;;;;;5092108;28;20047;-82
2022/11/13 08:02:58;;;;;;;1259.85;219.02;;;11.00;99.90;;;;;;5088767;28;20040;-78
2022/11/13 08:05:23;;;;;;;1156.93;181.20;;;10.50;2.00;;;;;;5098295;28;20747;-78
2022/11/13 08:07:50;;;;;;;1216.55;535.15;;;10.50;8.30;;;;;;5088634;28;20122;-78
2022/11/13 08:10:17;;;;;;;1406.85;217.38;;;11.60;23.20;;;;;;5090119;28;20048;-79
2022/11/13 08:12:44;;;;;;;967.53;147.10;;;10.60;20.60;;;;;;5096482;28;20048;-77
2022/11/13 08:15:11;;;;;;;564.03;73.10;;;10.70;27.30;;;;;;5082601;28;20058;-77
2022/11/13 08:17:36;;;;;;;1999.90;999.90;;;10.90;27.60;;;;;;5092500;28;20036;-81
2022/11/13 08:20:03;;;;;;;1093.80;513.90;;;10.90;99.90;;;;;;5085129;28;20449;-77
2022/11/13 08:22:29;;;;;;;1318.00;539.95;;;11.00;71.70;;;;;;5093117;28;20388;-78
2022/11/13 08:24:55;;;;;;;1128.68;165.35;;;12.30;18.10;;;;;;5090104;28;20123;-77
2022/11/13 08:27:22;;;;;;;1740.03;784.40;;;11.60;99.90;;;;;;5078495;28;20566;-77
2022/11/13 08:29:49;;;;;;;1614.22;582.10;;;12.50;1.00;;;;;;5085849;28;20471;-77
2022/11/13 08:32:17;;;;;;;1611.95;419.83;;;11.10;1.00;;;;;;5089803;28;20044;-80
2022/11/13 08:34:43;;;;;;;511.73;47.78;;;11.40;1.00;;;;;;5089300;28;20598;-77
2022/11/13 08:37:09;;;;;;;492.65;61.53;;;11.30;1.00;;;;;;5085842;28;20051;-78
2022/11/13 08:39:35;;;;;;;1278.25;359.77;;;;;;;;;;5106278;28;20040;-77
2022/11/13 08:42:04;;;;;;;1999.90;999.90;;;11.50;1.00;;;;;;5091811;28;20415;-77
2022/11/13 08:44:30;;;;;;;1999.90;999.90;;;11.50;99.90;;;;;;5092744;28;20118;-77
2022/11/13 08:46:56;;;;;;;655.95;70.07;;;11.50;1.00;;;;;;5085545;28;20188;-77
2022/11/13 08:49:22;;;;;;;1449.28;554.58;;;13.10;1.00;;;;;;5092154;28;20052;-77
2022/11/13 08:51:48;;;;;;;521.75;66.07;;;11.60;1.00;;;;;;5090632;28;20050;-77
2022/11/13 08:54:13;;;;;;;1331.60;541.15;;;11.60;1.00;;;;;;5090927;28;20048;-77
2022/11/13 08:56:39;;;;;;;465.83;54.83;;;11.70;1.00;;;;;;5089588;28;20044;-78
2022/11/13 08:59:05;;;;;;;1195.07;168.02;;;11.80;99.90;;;;;;5091606;28;20179;-78
2022/11/13 09:01:30;;;;;;;1094.43;147.25;;;11.80;99.90;;;;;;5090371;28;20043;-78
2022/11/13 09:03:57;;;;;;;910.30;142.68;;;;;;;;;;5108931;28;20048;-86
2022/11/13 09:06:24;;;;;;;1999.90;999.90;;;11.80;99.90;;;;;;5089214;28;20048;-78
2022/11/13 09:08:49;;;;;;;1999.90;999.90;;;11.80;99.90;;;;;;5073480;28;20045;-77
2022/11/13 09:11:15;;;;;;;1999.90;999.90;;;11.90;99.90;;;;;;5078795;28;20051;-78
2022/11/13 09:13:41;;;;;;;1999.90;999.90;;;12.10;1.00;;;;;;5085359;28;20139;-77
2022/11/13 09:16:07;;;;;;;1999.90;999.90;;;12.20;99.90;;;;;;5101506;28;20044;-78
2022/11/13 09:18:32;;;;;;;1999.90;999.90;;;12.20;99.90;;;;;;5095828;28;20044;-78
2022/11/13 09:21:01;;;;;;;1999.90;999.90;;;12.30;99.90;;;;;;5100220;28;20039;-85
2022/11/13 09:23:28;;;;;;;1999.90;999.90;;;12.40;99.90;;;;;;5088560;28;20113;-76
2022/11/13 09:25:54;;;;;;;1999.90;999.90;;;12.50;99.90;;;;;;5091628;28;20047;-76
2022/11/13 09:28:19;;;;;;;1999.90;999.90;;;12.60;99.90;;;;;;5101163;28;20051;-76
2022/11/13 09:30:45;;;;;;;1224.40;187.38;;;12.60;99.90;;;;;;5101678;28;20075;-76
2022/11/13 09:33:14;;;;;;;1999.90;999.90;;;12.70;1.00;;;;;;5083981;28;20051;-76
2022/11/13 09:35:40;;;;;;;1999.90;999.90;;;12.80;1.00;;;;;;5092020;28;20491;-76
2022/11/13 09:38:09;;;;;;;1999.90;999.90;;;13.00;99.90;;;;;;5103191;28;20051;-76
2022/11/13 09:41:06;;;;;;;1999.90;999.90;;;13.00;99.90;;;;;;5086049;28;20652;-82
2022/11/13 09:43:41;;;;;;;1999.90;999.90;;;13.20;99.90;;;;;;5098378;28;20089;-75
2022/11/13 09:46:41;;;;;;;1999.90;999.90;;;13.50;99.90;;;;;;5092716;28;20086;-76
2022/11/13 09:49:47;;;;;;;1999.90;999.90;;;14.00;91.70;;;;;;5088742;28;20048;-76
2022/11/13 09:52:18;;;;;;;1999.90;999.90;;;14.20;99.90;;;;;;5086189;28;20056;-76
2022/11/13 09:54:44;;;;;;;1999.90;999.90;;;14.30;99.90;;;;;;5089396;28;20051;-76
2022/11/13 09:57:39;;;;;;;1999.90;999.90;;;14.30;99.90;;;;;;5089717;28;20040;-75
2022/11/13 10:00:11;;;;;;;1999.90;999.90;;;14.40;99.90;;;;;;5089239;28;20078;-75
2022/11/13 10:03:14;;;;;;;1999.90;999.90;;;14.60;99.90;;;;;;5094946;28;20130;-76
2022/11/13 10:06:13;;;;;;;1999.90;999.90;;;14.80;99.90;;;;;;5090874;28;20042;-76
2022/11/13 10:08:57;;;;;;;1999.90;999.90;;;15.00;34.80;;;;;;5101800;28;20120;-76
2022/11/13 10:11:56;;;;;;;1999.90;999.90;;;15.20;1.00;;;;;;5078978;28;20055;-82
2022/11/13 10:14:30;;;;;;;1999.90;999.90;;;15.30;99.90;;;;;;5081067;28;20060;-76
2022/11/13 10:17:15;;;;;;;1999.90;999.90;;;15.30;99.90;;;;;;5088420;28;20047;-76
2022/11/13 10:20:01;;;;;;;1999.90;999.90;;;15.20;90.80;;;;;;5099073;28;20048;-76
2022/11/13 10:22:32;;;;;;;1999.90;999.90;;;15.00;1.00;;;;;;5096687;28;20544;-76
2022/11/13 10:25:11;;;;;;;1999.90;999.90;;;14.80;1.00;;;;;;5095898;28;20496;-75
2022/11/13 10:27:38;;;;;;;1999.90;999.90;;;14.80;99.90;;;;;;5092663;28;20077;-77
2022/11/13 10:30:15;;;;;;;1999.90;999.90;;;14.60;99.90;;;;;;5097274;28;20044;-80
2022/11/13 10:32:41;;;;;;;1999.90;999.90;;;14.50;99.90;;;;;;5105112;28;20117;-76
2022/11/13 10:35:06;;;;;;;1999.90;999.90;;;14.50;1.00;;;;;;5083121;28;20457;-79
2022/11/13 10:37:44;;;;;;;1999.90;999.90;;;14.40;1.00;;;;;;5085543;28;20044;-76
2022/11/13 10:40:10;;;;;;;1999.90;999.90;;;14.40;1.00;;;;;;5105528;27;20081;-77
2022/11/13 10:42:41;;;;;;;1999.90;999.90;;;14.60;1.00;;;;;;5108089;28;20040;-76
2022/11/13 10:45:15;;;;;;;1999.90;999.90;;;14.40;1.00;;;;;;5072681;28;20131;-76
2022/11/13 10:47:47;;;;;;;1999.90;999.90;;;14.40;1.00;;;;;;5092388;28;20039;-79
2022/11/13 10:50:28;;;;;;;1999.90;999.90;;;14.50;26.40;;;;;;5089077;28;20131;-76
2022/11/13 10:52:54;;;;;;;1999.90;999.90;;;14.60;56.20;;;;;;5088866;28;20047;-76
2022/11/13 10:55:36;;;;;;;1999.90;999.90;;;14.80;10.20;;;;;;5099613;28;20032;-76
2022/11/13 10:58:12;;;;;;;1999.90;999.90;;;14.80;1.00;;;;;;5098978;28;20096;-76
2022/11/13 11:00:40;;;;;;;1999.90;999.90;;;14.80;1.00;;;;;;5087675;28;20048;-79
2022/11/13 11:03:14;;;;;;;1999.90;999.90;;;14.90;1.00;;;;;;5091097;28;20511;-76
2022/11/13 11:05:54;;;;;;;1999.90;999.90;;;15.00;1.00;;;;;;5086812;28;20059;-76
2022/11/13 11:08:24;;;;;;;1999.90;999.90;;;15.10;1.00;;;;;;5081757;28;20051;-76
2022/11/13 11:13:47;;;;;;;1999.90;999.90;;;15.30;99.90;;;;;;5097837;28;20605;-76
2022/11/13 11:16:23;;;;;;;1999.90;999.90;;;15.30;99.90;;;;;;5093086;28;20036;-76
2022/11/13 11:19:03;;;;;;;1999.90;999.90;;;15.30;99.90;;;;;;5101937;28;20044;-76
2022/11/13 11:21:33;;;;;;;1999.90;999.90;;;15.40;99.90;;;;;;5092317;28;20047;-74
2022/11/13 11:24:12;;;;;;;1999.90;999.90;;;15.40;99.90;;;;;;5087494;28;20040;-79
2022/11/13 11:27:22;;;;;;;1999.90;999.90;;;15.40;99.90;;;;;;5091110;28;20048;-75
2022/11/13 11:30:03;;;;;;;1999.90;999.90;;;15.50;99.90;;;;;;5046682;28;20107;-77
2022/11/13 11:32:46;;;;;;;1999.90;999.90;;;15.60;1.00;;;;;;5040727;28;20045;-76
2022/11/13 11:35:20;;;;;;;1999.90;999.90;;;15.70;1.00;;;;;;5075570;28;20063;-75
2022/11/13 11:38:08;;;;;;;1999.90;999.90;;;15.90;1.00;;;;;;5091797;28;20051;-75
2022/11/13 11:40:39;;;;;;;1999.90;999.90;;;16.00;99.90;;;;;;5093722;28;20054;-75
2022/11/13 11:43:34;;;;;;;1999.90;999.90;;;16.00;1.00;;;;;;5094103;28;20653;-75
2022/11/13 11:45:59;;;;;;;1999.90;999.90;;;16.00;99.90;;;;;;5088091;28;20471;-75
2022/11/13 11:48:30;;;;;;;1999.90;999.90;;;16.10;1.00;;;;;;5087390;28;20127;-75
2022/11/13 11:51:41;;;;;;;1999.90;999.90;;;16.20;1.00;;;;;;5091245;28;20073;-77
2022/11/13 11:54:21;;;;;;;1999.90;999.90;;;16.20;99.90;;;;;;5028162;28;20041;-76
2022/11/13 11:57:16;;;;;;;1999.90;999.90;;;16.20;99.90;;;;;;5085947;28;20100;-76
2022/11/13 12:00:03;;;;;;;1999.90;999.90;;;16.30;99.90;;;;;;5081369;28;20052;-75
2022/11/13 12:03:06;;;;;;;1999.90;999.90;;;16.30;99.90;;;;;;5087158;28;20048;-74
2022/11/13 12:06:02;;;;;;;1999.90;999.90;;;16.20;99.90;;;;;;5087289;28;20044;-75
2022/11/13 12:08:40;;;;;;;1999.90;999.90;;;16.20;99.90;;;;;;5082629;28;20059;-75
2022/11/13 12:11:36;;;;;;;1999.90;999.90;;;16.10;99.90;;;;;;5094211;28;20059;-75
2022/11/13 12:14:02;;;;;;;1999.90;999.90;;;16.10;1.00;;;;;;5094082;28;20101;-75
2022/11/13 12:17:08;;;;;;;1999.90;999.90;;;16.00;1.00;;;;;;5091001;28;20408;-75
2022/11/13 12:19:55;;;;;;;1999.90;999.90;;;16.00;1.00;;;;;;5092450;28;20050;-82
2022/11/13 12:22:38;;;;;;;1999.90;999.90;;;16.00;99.90;;;;;;5085355;28;20439;-84